Eagle Bay — CFN5487 — position and weather

sailwx.info

Track history (hours):
 
Tides and Currents Weather Stations Pressure Air Temp Water Temp Dewpoint Dewpoint Depression Visibility Wind Speed Wind Dir Waves Ship Positions

Eagle Bay

Last reported at 2018-Jan-03 19:47 UTC. Time now 2018-Jan-22 06:39 UTC.
Position N 54°19' W 130°19'.
Warning: this ship's position is 18 days out of date.

Length 15 m.

Type: Ship. MMSI: 316013706.

Date/timePositionNaut miles runAvg speedWind from/ knotsBaromVisibWave heightAir tempDewpointWater temp
2018-Jan-03 19:47N 54°19' W 130°19'1 1.9
2018-Jan-03 19:30N 54°20' W 130°19'0 0.4
2018-Jan-03 19:00N 54°20' W 130°19'0 0.3
2018-Jan-03 18:30N 54°20' W 130°19'0 0.3
2018-Jan-03 18:00N 54°20' W 130°19'1 1.2
2018-Jan-03 17:30N 54°19' W 130°19'0 0.0
2018-Jan-02 20:04N 54°19' W 130°19'0 3.0
2018-Jan-02 20:00N 54°19' W 130°19'5 9.9
2018-Jan-02 19:30N 54°14' W 130°21'3 5.5
2018-Jan-02 19:00N 54°12' W 130°18'2 4.8
2018-Jan-02 18:30N 54°15' W 130°19'2 3.4
2018-Jan-02 18:00N 54°13' W 130°20'5 9.2
2018-Jan-02 17:30N 54°17' W 130°22'  
2017-Dec-27 20:57N 54°19' W 130°19'1 1.7
2017-Dec-27 20:30N 54°19' W 130°20'4 8.0
2017-Dec-27 20:00N 54°15' W 130°21'612.8
2017-Dec-27 19:30N 54°18' W 130°31'4 7.6
2017-Dec-27 19:00N 54°20' W 130°25'3 5.5
2017-Dec-27 18:30N 54°19' W 130°20'1 1.6
2017-Dec-27 18:00N 54°19' W 130°19'  
Track history (hours):
 
Tides and Currents Weather Stations Pressure Air Temp Water Temp Dewpoint Dewpoint Depression Visibility Wind Speed Wind Dir Waves Ship Positions

Eagle Bay

Last reported at 2018-Jan-03 19:47 UTC. Time now 2018-Jan-22 06:39 UTC.
Position N 54°19' W 130°19'.
Warning: this ship's position is 18 days out of date.

Length 15 m.

Type: Ship. MMSI: 316013706.

Date/timePositionNaut miles runAvg speedWind from/ knotsBaromVisibWave heightAir tempDewpointWater temp
2018-Jan-03 19:47N 54°19' W 130°19'1 1.9
2018-Jan-03 19:30N 54°20' W 130°19'0 0.4
2018-Jan-03 19:00N 54°20' W 130°19'0 0.3
2018-Jan-03 18:30N 54°20' W 130°19'0 0.3
2018-Jan-03 18:00N 54°20' W 130°19'1 1.2
2018-Jan-03 17:30N 54°19' W 130°19'0 0.0
2018-Jan-02 20:04N 54°19' W 130°19'0 3.0
2018-Jan-02 20:00N 54°19' W 130°19'5 9.9
2018-Jan-02 19:30N 54°14' W 130°21'3 5.5
2018-Jan-02 19:00N 54°12' W 130°18'2 4.8
2018-Jan-02 18:30N 54°15' W 130°19'2 3.4
2018-Jan-02 18:00N 54°13' W 130°20'5 9.2
2018-Jan-02 17:30N 54°17' W 130°22'  
2017-Dec-27 20:57N 54°19' W 130°19'1 1.7
2017-Dec-27 20:30N 54°19' W 130°20'4 8.0
2017-Dec-27 20:00N 54°15' W 130°21'612.8
2017-Dec-27 19:30N 54°18' W 130°31'4 7.6
2017-Dec-27 19:00N 54°20' W 130°25'3 5.5
2017-Dec-27 18:30N 54°19' W 130°20'1 1.6
2017-Dec-27 18:00N 54°19' W 130°19'  

Dump ship's entire track history